sensor_id;sensor_type;location;lat;lon;timestamp;P1;durP1;ratioP1;P2;durP2;ratioP2
60354;SDS011;46198;51.464;-0.066;2022-09-28T00:01:13;6.60;;;2.00;;
60354;SDS011;46198;51.464;-0.066;2022-09-28T00:03:43;9.93;;;2.20;;
60354;SDS011;46198;51.464;-0.066;2022-09-28T00:06:12;6.00;;;1.83;;
60354;SDS011;46198;51.464;-0.066;2022-09-28T00:08:42;7.97;;;2.40;;
60354;SDS011;46198;51.464;-0.066;2022-09-28T00:11:11;5.40;;;2.00;;
60354;SDS011;46198;51.464;-0.066;2022-09-28T00:13:42;5.47;;;1.63;;
60354;SDS011;46198;51.464;-0.066;2022-09-28T00:16:12;7.90;;;1.77;;
60354;SDS011;46198;51.464;-0.066;2022-09-28T00:18:42;8.63;;;2.47;;
60354;SDS011;46198;51.464;-0.066;2022-09-28T00:21:11;8.07;;;2.83;;
60354;SDS011;46198;51.464;-0.066;2022-09-28T00:23:41;5.32;;;1.70;;
60354;SDS011;46198;51.464;-0.066;2022-09-28T00:26:24;9.10;;;2.30;;
60354;SDS011;46198;51.464;-0.066;2022-09-28T00:28:56;5.53;;;1.73;;
60354;SDS011;46198;51.464;-0.066;2022-09-28T00:31:25;8.53;;;1.87;;
60354;SDS011;46198;51.464;-0.066;2022-09-28T00:33:55;7.07;;;2.17;;
60354;SDS011;46198;51.464;-0.066;2022-09-28T00:36:23;2.30;;;1.80;;
60354;SDS011;46198;51.464;-0.066;2022-09-28T00:38:52;6.40;;;1.40;;
60354;SDS011;46198;51.464;-0.066;2022-09-28T00:41:22;11.40;;;2.00;;
60354;SDS011;46198;51.464;-0.066;2022-09-28T00:43:50;10.37;;;2.47;;
60354;SDS011;46198;51.464;-0.066;2022-09-28T00:46:21;7.47;;;1.47;;
60354;SDS011;46198;51.464;-0.066;2022-09-28T00:48:58;5.93;;;1.80;;
60354;SDS011;46198;51.464;-0.066;2022-09-28T00:51:29;8.80;;;2.30;;
60354;SDS011;46198;51.464;-0.066;2022-09-28T00:53:58;7.17;;;1.97;;
60354;SDS011;46198;51.464;-0.066;2022-09-28T00:56:30;5.03;;;2.03;;
60354;SDS011;46198;51.464;-0.066;2022-09-28T00:59:01;7.30;;;1.93;;
60354;SDS011;46198;51.464;-0.066;2022-09-28T01:01:32;6.60;;;1.63;;
60354;SDS011;46198;51.464;-0.066;2022-09-28T01:04:01;4.55;;;1.80;;
60354;SDS011;46198;51.464;-0.066;2022-09-28T01:06:32;8.07;;;1.70;;
60354;SDS011;46198;51.464;-0.066;2022-09-28T01:09:02;8.63;;;1.98;;
60354;SDS011;46198;51.464;-0.066;2022-09-28T01:11:32;7.72;;;1.77;;
60354;SDS011;46198;51.464;-0.066;2022-09-28T01:14:04;4.97;;;1.50;;
60354;SDS011;46198;51.464;-0.066;2022-09-28T01:16:38;5.28;;;1.85;;
60354;SDS011;46198;51.464;-0.066;2022-09-28T01:19:28;5.23;;;1.53;;
60354;SDS011;46198;51.464;-0.066;2022-09-28T01:22:13;7.35;;;1.95;;
60354;SDS011;46198;51.464;-0.066;2022-09-28T01:24:55;5.97;;;1.63;;
60354;SDS011;46198;51.464;-0.066;2022-09-28T01:27:34;7.70;;;2.03;;
60354;SDS011;46198;51.464;-0.066;2022-09-28T01:30:08;6.83;;;1.83;;
60354;SDS011;46198;51.464;-0.066;2022-09-28T01:32:42;5.00;;;1.90;;
60354;SDS011;46198;51.464;-0.066;2022-09-28T01:35:17;2.00;;;1.43;;
60354;SDS011;46198;51.464;-0.066;2022-09-28T01:37:52;5.87;;;1.37;;
60354;SDS011;46198;51.464;-0.066;2022-09-28T01:40:25;4.47;;;1.70;;
60354;SDS011;46198;51.464;-0.066;2022-09-28T01:42:58;6.53;;;1.55;;
60354;SDS011;46198;51.464;-0.066;2022-09-28T01:45:31;9.87;;;2.27;;
60354;SDS011;46198;51.464;-0.066;2022-09-28T01:48:04;3.73;;;1.87;;
60354;SDS011;46198;51.464;-0.066;2022-09-28T01:50:35;6.15;;;1.85;;
60354;SDS011;46198;51.464;-0.066;2022-09-28T01:53:07;7.90;;;2.17;;
60354;SDS011;46198;51.464;-0.066;2022-09-28T01:55:42;7.10;;;1.77;;
60354;SDS011;46198;51.464;-0.066;2022-09-28T01:58:17;4.27;;;1.70;;
60354;SDS011;46198;51.464;-0.066;2022-09-28T02:00:52;3.93;;;1.70;;
60354;SDS011;46198;51.464;-0.066;2022-09-28T02:03:28;4.50;;;1.60;;
60354;SDS011;46198;51.464;-0.066;2022-09-28T02:06:03;6.70;;;1.80;;
60354;SDS011;46198;51.464;-0.066;2022-09-28T02:08:35;6.97;;;1.50;;
60354;SDS011;46198;51.464;-0.066;2022-09-28T02:11:07;12.03;;;2.07;;
60354;SDS011;46198;51.464;-0.066;2022-09-28T02:13:41;5.23;;;1.50;;
60354;SDS011;46198;51.464;-0.066;2022-09-28T02:16:15;4.63;;;1.90;;
60354;SDS011;46198;51.464;-0.066;2022-09-28T02:18:48;10.43;;;1.53;;
60354;SDS011;46198;51.464;-0.066;2022-09-28T02:21:21;7.60;;;1.97;;
60354;SDS011;46198;51.464;-0.066;2022-09-28T02:23:54;7.90;;;1.87;;
60354;SDS011;46198;51.464;-0.066;2022-09-28T02:26:26;8.10;;;1.87;;
60354;SDS011;46198;51.464;-0.066;2022-09-28T02:28:59;3.67;;;1.57;;
60354;SDS011;46198;51.464;-0.066;2022-09-28T02:31:27;10.17;;;1.77;;
60354;SDS011;46198;51.464;-0.066;2022-09-28T02:33:56;6.87;;;1.67;;
60354;SDS011;46198;51.464;-0.066;2022-09-28T02:36:25;7.13;;;1.80;;
60354;SDS011;46198;51.464;-0.066;2022-09-28T02:38:56;4.63;;;1.42;;
60354;SDS011;46198;51.464;-0.066;2022-09-28T02:41:31;7.78;;;1.67;;
60354;SDS011;46198;51.464;-0.066;2022-09-28T02:44:17;5.73;;;1.73;;
60354;SDS011;46198;51.464;-0.066;2022-09-28T02:47:03;8.83;;;2.00;;
60354;SDS011;46198;51.464;-0.066;2022-09-28T02:49:43;4.25;;;1.50;;
60354;SDS011;46198;51.464;-0.066;2022-09-28T02:52:21;3.30;;;1.70;;
60354;SDS011;46198;51.464;-0.066;2022-09-28T02:55:08;5.73;;;1.73;;
60354;SDS011;46198;51.464;-0.066;2022-09-28T02:57:46;9.40;;;1.70;;
60354;SDS011;46198;51.464;-0.066;2022-09-28T03:00:25;11.23;;;2.10;;
60354;SDS011;46198;51.464;-0.066;2022-09-28T03:02:57;9.43;;;1.80;;
60354;SDS011;46198;51.464;-0.066;2022-09-28T03:05:33;8.27;;;2.03;;
60354;SDS011;46198;51.464;-0.066;2022-09-28T03:08:10;9.00;;;2.03;;
60354;SDS011;46198;51.464;-0.066;2022-09-28T03:10:46;3.97;;;1.60;;
60354;SDS011;46198;51.464;-0.066;2022-09-28T03:13:20;9.57;;;2.10;;
60354;SDS011;46198;51.464;-0.066;2022-09-28T03:15:50;12.40;;;2.00;;
60354;SDS011;46198;51.464;-0.066;2022-09-28T03:18:19;4.77;;;1.80;;
60354;SDS011;46198;51.464;-0.066;2022-09-28T03:20:47;4.60;;;1.80;;
60354;SDS011;46198;51.464;-0.066;2022-09-28T03:23:16;4.33;;;1.40;;
60354;SDS011;46198;51.464;-0.066;2022-09-28T03:25:51;8.57;;;1.80;;
60354;SDS011;46198;51.464;-0.066;2022-09-28T03:28:20;6.73;;;2.40;;
60354;SDS011;46198;51.464;-0.066;2022-09-28T03:30:48;8.60;;;2.40;;
60354;SDS011;46198;51.464;-0.066;2022-09-28T03:33:18;7.00;;;1.80;;
60354;SDS011;46198;51.464;-0.066;2022-09-28T03:35:47;2.53;;;1.43;;
60354;SDS011;46198;51.464;-0.066;2022-09-28T03:38:16;7.90;;;1.90;;
60354;SDS011;46198;51.464;-0.066;2022-09-28T03:40:51;8.07;;;2.47;;
60354;SDS011;46198;51.464;-0.066;2022-09-28T03:43:20;4.90;;;1.80;;
60354;SDS011;46198;51.464;-0.066;2022-09-28T03:45:52;8.23;;;2.00;;
60354;SDS011;46198;51.464;-0.066;2022-09-28T03:48:22;5.53;;;2.10;;
60354;SDS011;46198;51.464;-0.066;2022-09-28T03:50:58;4.03;;;1.97;;
60354;SDS011;46198;51.464;-0.066;2022-09-28T03:53:27;5.13;;;1.43;;
60354;SDS011;46198;51.464;-0.066;2022-09-28T03:56:00;8.63;;;1.70;;
60354;SDS011;46198;51.464;-0.066;2022-09-28T03:58:30;4.93;;;1.70;;
60354;SDS011;46198;51.464;-0.066;2022-09-28T04:01:04;6.37;;;1.90;;
60354;SDS011;46198;51.464;-0.066;2022-09-28T04:03:39;6.88;;;1.80;;
60354;SDS011;46198;51.464;-0.066;2022-09-28T04:06:08;5.97;;;1.57;;
60354;SDS011;46198;51.464;-0.066;2022-09-28T04:08:36;5.87;;;1.97;;
60354;SDS011;46198;51.464;-0.066;2022-09-28T04:11:05;5.37;;;1.90;;
60354;SDS011;46198;51.464;-0.066;2022-09-28T04:13:33;6.20;;;2.43;;
60354;SDS011;46198;51.464;-0.066;2022-09-28T04:16:05;6.78;;;1.90;;
60354;SDS011;46198;51.464;-0.066;2022-09-28T04:18:34;6.50;;;1.80;;
60354;SDS011;46198;51.464;-0.066;2022-09-28T04:21:21;4.97;;;1.50;;
60354;SDS011;46198;51.464;-0.066;2022-09-28T04:23:56;9.23;;;2.30;;
60354;SDS011;46198;51.464;-0.066;2022-09-28T04:26:25;5.70;;;1.83;;
60354;SDS011;46198;51.464;-0.066;2022-09-28T04:28:55;7.20;;;2.03;;
60354;SDS011;46198;51.464;-0.066;2022-09-28T04:31:46;11.27;;;2.13;;
60354;SDS011;46198;51.464;-0.066;2022-09-28T04:34:17;9.87;;;2.10;;
60354;SDS011;46198;51.464;-0.066;2022-09-28T04:36:48;5.88;;;2.03;;
60354;SDS011;46198;51.464;-0.066;2022-09-28T04:39:17;9.80;;;3.20;;
60354;SDS011;46198;51.464;-0.066;2022-09-28T04:41:49;7.50;;;2.27;;
60354;SDS011;46198;51.464;-0.066;2022-09-28T04:44:17;3.70;;;1.63;;
60354;SDS011;46198;51.464;-0.066;2022-09-28T04:46:48;3.57;;;1.60;;
60354;SDS011;46198;51.464;-0.066;2022-09-28T04:49:28;6.70;;;1.70;;
60354;SDS011;46198;51.464;-0.066;2022-09-28T04:52:17;6.90;;;2.13;;
60354;SDS011;46198;51.464;-0.066;2022-09-28T04:54:47;5.30;;;1.98;;
60354;SDS011;46198;51.464;-0.066;2022-09-28T04:57:15;7.37;;;1.97;;
60354;SDS011;46198;51.464;-0.066;2022-09-28T04:59:45;5.03;;;1.60;;
60354;SDS011;46198;51.464;-0.066;2022-09-28T05:02:15;5.60;;;1.80;;
60354;SDS011;46198;51.464;-0.066;2022-09-28T05:05:04;7.63;;;2.27;;
60354;SDS011;46198;51.464;-0.066;2022-09-28T05:08:02;8.73;;;2.40;;
60354;SDS011;46198;51.464;-0.066;2022-09-28T05:10:30;3.83;;;1.70;;
60354;SDS011;46198;51.464;-0.066;2022-09-28T05:12:58;3.87;;;1.80;;
60354;SDS011;46198;51.464;-0.066;2022-09-28T05:15:28;10.70;;;2.33;;
60354;SDS011;46198;51.464;-0.066;2022-09-28T05:17:58;6.33;;;2.13;;
60354;SDS011;46198;51.464;-0.066;2022-09-28T05:20:48;7.40;;;2.40;;
60354;SDS011;46198;51.464;-0.066;2022-09-28T05:23:17;9.33;;;2.07;;
60354;SDS011;46198;51.464;-0.066;2022-09-28T05:25:45;11.97;;;2.23;;
60354;SDS011;46198;51.464;-0.066;2022-09-28T05:28:23;5.57;;;2.13;;
60354;SDS011;46198;51.464;-0.066;2022-09-28T05:31:29;6.47;;;2.10;;
60354;SDS011;46198;51.464;-0.066;2022-09-28T05:34:14;4.43;;;2.20;;
60354;SDS011;46198;51.464;-0.066;2022-09-28T05:36:43;4.95;;;1.95;;
60354;SDS011;46198;51.464;-0.066;2022-09-28T05:39:11;12.63;;;2.07;;
60354;SDS011;46198;51.464;-0.066;2022-09-28T05:41:39;5.83;;;2.00;;
60354;SDS011;46198;51.464;-0.066;2022-09-28T05:44:07;7.63;;;2.87;;
60354;SDS011;46198;51.464;-0.066;2022-09-28T05:46:36;8.10;;;2.17;;
60354;SDS011;46198;51.464;-0.066;2022-09-28T05:49:04;5.13;;;2.67;;
60354;SDS011;46198;51.464;-0.066;2022-09-28T05:51:33;9.27;;;2.20;;
60354;SDS011;46198;51.464;-0.066;2022-09-28T05:54:01;4.63;;;1.77;;
60354;SDS011;46198;51.464;-0.066;2022-09-28T05:56:34;10.40;;;2.63;;
60354;SDS011;46198;51.464;-0.066;2022-09-28T05:59:05;9.68;;;2.92;;
60354;SDS011;46198;51.464;-0.066;2022-09-28T06:01:33;7.43;;;2.57;;
60354;SDS011;46198;51.464;-0.066;2022-09-28T06:04:04;8.87;;;2.83;;
60354;SDS011;46198;51.464;-0.066;2022-09-28T06:06:36;6.13;;;2.43;;
60354;SDS011;46198;51.464;-0.066;2022-09-28T06:09:04;8.83;;;2.77;;
60354;SDS011;46198;51.464;-0.066;2022-09-28T06:11:45;7.32;;;2.45;;
60354;SDS011;46198;51.464;-0.066;2022-09-28T06:14:23;12.67;;;3.10;;
60354;SDS011;46198;51.464;-0.066;2022-09-28T06:16:51;7.97;;;2.27;;
60354;SDS011;46198;51.464;-0.066;2022-09-28T06:19:20;6.80;;;2.23;;
60354;SDS011;46198;51.464;-0.066;2022-09-28T06:22:06;8.63;;;2.53;;
60354;SDS011;46198;51.464;-0.066;2022-09-28T06:24:42;10.37;;;2.97;;
60354;SDS011;46198;51.464;-0.066;2022-09-28T06:27:10;9.87;;;2.47;;
60354;SDS011;46198;51.464;-0.066;2022-09-28T06:29:38;14.47;;;2.73;;
60354;SDS011;46198;51.464;-0.066;2022-09-28T06:32:07;7.47;;;2.30;;
60354;SDS011;46198;51.464;-0.066;2022-09-28T06:34:36;6.57;;;2.67;;
60354;SDS011;46198;51.464;-0.066;2022-09-28T06:37:06;3.73;;;2.43;;
60354;SDS011;46198;51.464;-0.066;2022-09-28T06:39:35;5.82;;;2.45;;
60354;SDS011;46198;51.464;-0.066;2022-09-28T06:42:04;7.97;;;2.83;;
60354;SDS011;46198;51.464;-0.066;2022-09-28T06:44:55;11.25;;;2.80;;
60354;SDS011;46198;51.464;-0.066;2022-09-28T06:47:41;8.67;;;3.00;;
60354;SDS011;46198;51.464;-0.066;2022-09-28T06:50:22;6.90;;;2.58;;
60354;SDS011;46198;51.464;-0.066;2022-09-28T06:53:06;6.77;;;2.17;;
60354;SDS011;46198;51.464;-0.066;2022-09-28T06:55:47;6.93;;;2.60;;
60354;SDS011;46198;51.464;-0.066;2022-09-28T06:58:16;9.73;;;2.80;;
60354;SDS011;46198;51.464;-0.066;2022-09-28T07:00:47;4.65;;;2.20;;
60354;SDS011;46198;51.464;-0.066;2022-09-28T07:03:18;6.93;;;2.70;;
60354;SDS011;46198;51.464;-0.066;2022-09-28T07:06:08;8.37;;;3.03;;
60354;SDS011;46198;51.464;-0.066;2022-09-28T07:09:09;7.17;;;2.73;;
60354;SDS011;46198;51.464;-0.066;2022-09-28T07:12:11;6.80;;;3.13;;
60354;SDS011;46198;51.464;-0.066;2022-09-28T07:14:55;5.93;;;3.30;;
60354;SDS011;46198;51.464;-0.066;2022-09-28T07:17:26;6.20;;;2.93;;
60354;SDS011;46198;51.464;-0.066;2022-09-28T07:19:57;4.37;;;2.97;;
60354;SDS011;46198;51.464;-0.066;2022-09-28T07:22:39;6.60;;;3.03;;
60354;SDS011;46198;51.464;-0.066;2022-09-28T07:25:16;10.03;;;3.80;;
60354;SDS011;46198;51.464;-0.066;2022-09-28T07:27:53;6.40;;;2.83;;
60354;SDS011;46198;51.464;-0.066;2022-09-28T07:30:48;5.90;;;2.60;;
60354;SDS011;46198;51.464;-0.066;2022-09-28T07:33:36;9.83;;;3.23;;
60354;SDS011;46198;51.464;-0.066;2022-09-28T07:36:21;10.30;;;3.47;;
60354;SDS011;46198;51.464;-0.066;2022-09-28T07:38:51;9.77;;;3.40;;
60354;SDS011;46198;51.464;-0.066;2022-09-28T07:41:20;10.03;;;3.27;;
60354;SDS011;46198;51.464;-0.066;2022-09-28T07:43:58;4.37;;;2.80;;
60354;SDS011;46198;51.464;-0.066;2022-09-28T07:46:33;10.60;;;3.70;;
60354;SDS011;46198;51.464;-0.066;2022-09-28T07:49:40;10.30;;;3.60;;
60354;SDS011;46198;51.464;-0.066;2022-09-28T07:52:14;8.87;;;4.37;;
60354;SDS011;46198;51.464;-0.066;2022-09-28T07:55:00;10.13;;;4.03;;
60354;SDS011;46198;51.464;-0.066;2022-09-28T07:57:54;9.55;;;4.30;;
60354;SDS011;46198;51.464;-0.066;2022-09-28T08:00:55;13.23;;;4.30;;
60354;SDS011;46198;51.464;-0.066;2022-09-28T08:03:27;8.87;;;3.90;;
60354;SDS011;46198;51.464;-0.066;2022-09-28T08:05:58;14.27;;;5.60;;
60354;SDS011;46198;51.464;-0.066;2022-09-28T08:08:27;15.77;;;5.03;;
60354;SDS011;46198;51.464;-0.066;2022-09-28T08:10:57;10.00;;;3.90;;
60354;SDS011;46198;51.464;-0.066;2022-09-28T08:14:01;7.43;;;3.70;;
60354;SDS011;46198;51.464;-0.066;2022-09-28T08:16:47;9.10;;;4.23;;
60354;SDS011;46198;51.464;-0.066;2022-09-28T08:19:33;7.20;;;3.70;;
60354;SDS011;46198;51.464;-0.066;2022-09-28T08:22:15;11.40;;;5.13;;
60354;SDS011;46198;51.464;-0.066;2022-09-28T08:24:45;7.47;;;4.17;;
60354;SDS011;46198;51.464;-0.066;2022-09-28T08:27:14;10.90;;;4.00;;
60354;SDS011;46198;51.464;-0.066;2022-09-28T08:29:45;10.05;;;3.55;;
60354;SDS011;46198;51.464;-0.066;2022-09-28T08:32:44;10.90;;;4.50;;
60354;SDS011;46198;51.464;-0.066;2022-09-28T08:35:32;8.40;;;4.40;;
60354;SDS011;46198;51.464;-0.066;2022-09-28T08:38:24;6.93;;;4.03;;
60354;SDS011;46198;51.464;-0.066;2022-09-28T08:41:14;9.98;;;3.97;;
60354;SDS011;46198;51.464;-0.066;2022-09-28T08:44:17;11.50;;;4.13;;
60354;SDS011;46198;51.464;-0.066;2022-09-28T08:47:14;8.55;;;3.80;;
60354;SDS011;46198;51.464;-0.066;2022-09-28T08:50:31;8.05;;;4.13;;
60354;SDS011;46198;51.464;-0.066;2022-09-28T08:53:19;6.25;;;3.60;;
60354;SDS011;46198;51.464;-0.066;2022-09-28T08:56:09;6.45;;;3.50;;
60354;SDS011;46198;51.464;-0.066;2022-09-28T08:58:45;8.90;;;3.78;;
60354;SDS011;46198;51.464;-0.066;2022-09-28T09:01:17;8.20;;;4.43;;
60354;SDS011;46198;51.464;-0.066;2022-09-28T09:03:48;5.57;;;3.53;;
60354;SDS011;46198;51.464;-0.066;2022-09-28T09:06:35;7.15;;;3.58;;
60354;SDS011;46198;51.464;-0.066;2022-09-28T09:09:29;8.15;;;3.40;;
60354;SDS011;46198;51.464;-0.066;2022-09-28T09:12:06;7.25;;;3.70;;
60354;SDS011;46198;51.464;-0.066;2022-09-28T09:15:02;8.55;;;4.35;;
60354;SDS011;46198;51.464;-0.066;2022-09-28T09:17:46;8.52;;;4.32;;
60354;SDS011;46198;51.464;-0.066;2022-09-28T09:20:42;11.20;;;4.38;;
60354;SDS011;46198;51.464;-0.066;2022-09-28T09:23:28;7.47;;;4.10;;
60354;SDS011;46198;51.464;-0.066;2022-09-28T09:26:08;10.75;;;3.80;;
60354;SDS011;46198;51.464;-0.066;2022-09-28T09:29:01;8.15;;;3.67;;
60354;SDS011;46198;51.464;-0.066;2022-09-28T09:31:56;5.57;;;3.33;;
60354;SDS011;46198;51.464;-0.066;2022-09-28T09:34:41;5.32;;;3.22;;
60354;SDS011;46198;51.464;-0.066;2022-09-28T09:38:03;7.80;;;3.90;;
60354;SDS011;46198;51.464;-0.066;2022-09-28T09:40:56;5.80;;;3.30;;
60354;SDS011;46198;51.464;-0.066;2022-09-28T09:44:06;8.55;;;3.30;;
60354;SDS011;46198;51.464;-0.066;2022-09-28T09:46:50;5.82;;;3.33;;
60354;SDS011;46198;51.464;-0.066;2022-09-28T09:49:36;10.63;;;3.90;;
60354;SDS011;46198;51.464;-0.066;2022-09-28T09:52:09;6.70;;;3.38;;
60354;SDS011;46198;51.464;-0.066;2022-09-28T09:54:47;3.95;;;2.45;;
60354;SDS011;46198;51.464;-0.066;2022-09-28T09:57:33;3.65;;;2.10;;
60354;SDS011;46198;51.464;-0.066;2022-09-28T10:00:27;6.63;;;2.35;;
60354;SDS011;46198;51.464;-0.066;2022-09-28T10:03:08;3.17;;;2.17;;
60354;SDS011;46198;51.464;-0.066;2022-09-28T10:05:46;4.38;;;2.20;;
60354;SDS011;46198;51.464;-0.066;2022-09-28T10:08:19;5.22;;;2.47;;
60354;SDS011;46198;51.464;-0.066;2022-09-28T10:10:52;4.70;;;2.35;;
60354;SDS011;46198;51.464;-0.066;2022-09-28T10:13:25;9.50;;;3.13;;
60354;SDS011;46198;51.464;-0.066;2022-09-28T10:15:58;5.15;;;1.65;;
60354;SDS011;46198;51.464;-0.066;2022-09-28T10:18:35;3.28;;;1.40;;
60354;SDS011;46198;51.464;-0.066;2022-09-28T10:21:22;6.20;;;1.70;;
60354;SDS011;46198;51.464;-0.066;2022-09-28T10:23:59;2.75;;;1.50;;
60354;SDS011;46198;51.464;-0.066;2022-09-28T10:26:33;4.40;;;1.65;;
60354;SDS011;46198;51.464;-0.066;2022-09-28T10:29:09;5.65;;;1.88;;
60354;SDS011;46198;51.464;-0.066;2022-09-28T10:31:41;1.95;;;1.60;;
60354;SDS011;46198;51.464;-0.066;2022-09-28T10:34:23;4.50;;;1.63;;
60354;SDS011;46198;51.464;-0.066;2022-09-28T10:36:54;3.45;;;2.28;;
60354;SDS011;46198;51.464;-0.066;2022-09-28T10:39:32;2.47;;;1.60;;
60354;SDS011;46198;51.464;-0.066;2022-09-28T10:42:06;6.32;;;2.80;;
60354;SDS011;46198;51.464;-0.066;2022-09-28T10:44:46;4.55;;;2.40;;
60354;SDS011;46198;51.464;-0.066;2022-09-28T10:47:25;3.33;;;2.00;;
60354;SDS011;46198;51.464;-0.066;2022-09-28T10:49:56;3.33;;;1.50;;
60354;SDS011;46198;51.464;-0.066;2022-09-28T10:52:34;6.47;;;2.10;;
60354;SDS011;46198;51.464;-0.066;2022-09-28T10:55:27;3.22;;;1.40;;
60354;SDS011;46198;51.464;-0.066;2022-09-28T10:58:00;3.50;;;1.17;;
60354;SDS011;46198;51.464;-0.066;2022-09-28T11:00:58;2.45;;;1.00;;
60354;SDS011;46198;51.464;-0.066;2022-09-28T11:03:30;4.28;;;1.85;;
60354;SDS011;46198;51.464;-0.066;2022-09-28T11:06:04;5.20;;;1.63;;
60354;SDS011;46198;51.464;-0.066;2022-09-28T11:08:37;2.17;;;1.00;;
60354;SDS011;46198;51.464;-0.066;2022-09-28T11:11:15;3.40;;;1.20;;
60354;SDS011;46198;51.464;-0.066;2022-09-28T11:13:52;4.18;;;1.25;;
60354;SDS011;46198;51.464;-0.066;2022-09-28T11:16:26;2.58;;;1.30;;
60354;SDS011;46198;51.464;-0.066;2022-09-28T11:18:58;3.38;;;1.50;;
60354;SDS011;46198;51.464;-0.066;2022-09-28T11:21:39;4.10;;;1.73;;
60354;SDS011;46198;51.464;-0.066;2022-09-28T11:24:17;3.78;;;1.80;;
60354;SDS011;46198;51.464;-0.066;2022-09-28T11:26:49;2.63;;;1.67;;
60354;SDS011;46198;51.464;-0.066;2022-09-28T11:29:36;3.78;;;1.50;;
60354;SDS011;46198;51.464;-0.066;2022-09-28T11:32:30;1.33;;;1.23;;
60354;SDS011;46198;51.464;-0.066;2022-09-28T11:35:18;3.85;;;1.40;;
60354;SDS011;46198;51.464;-0.066;2022-09-28T11:37:53;5.20;;;1.83;;
60354;SDS011;46198;51.464;-0.066;2022-09-28T11:41:11;3.45;;;1.60;;
60354;SDS011;46198;51.464;-0.066;2022-09-28T11:43:54;2.60;;;1.38;;
60354;SDS011;46198;51.464;-0.066;2022-09-28T11:46:38;2.88;;;1.40;;
60354;SDS011;46198;51.464;-0.066;2022-09-28T11:49:24;1.40;;;1.30;;
60354;SDS011;46198;51.464;-0.066;2022-09-28T11:51:59;2.90;;;1.60;;
60354;SDS011;46198;51.464;-0.066;2022-09-28T11:54:39;2.17;;;1.30;;
60354;SDS011;46198;51.464;-0.066;2022-09-28T11:57:24;3.03;;;2.10;;
60354;SDS011;46198;51.464;-0.066;2022-09-28T11:59:57;2.00;;;1.33;;
60354;SDS011;46198;51.464;-0.066;2022-09-28T12:02:32;2.25;;;0.95;;
60354;SDS011;46198;51.464;-0.066;2022-09-28T12:05:11;1.80;;;1.27;;
60354;SDS011;46198;51.464;-0.066;2022-09-28T12:07:48;1.38;;;1.10;;
60354;SDS011;46198;51.464;-0.066;2022-09-28T12:10:44;2.08;;;1.30;;
60354;SDS011;46198;51.464;-0.066;2022-09-28T12:13:25;1.83;;;1.25;;
60354;SDS011;46198;51.464;-0.066;2022-09-28T12:15:56;2.35;;;1.50;;
60354;SDS011;46198;51.464;-0.066;2022-09-28T12:18:50;2.88;;;1.75;;
60354;SDS011;46198;51.464;-0.066;2022-09-28T12:21:26;2.72;;;1.60;;
60354;SDS011;46198;51.464;-0.066;2022-09-28T12:24:01;3.20;;;1.60;;
60354;SDS011;46198;51.464;-0.066;2022-09-28T12:26:35;3.42;;;2.38;;
60354;SDS011;46198;51.464;-0.066;2022-09-28T12:29:09;1.73;;;1.40;;
60354;SDS011;46198;51.464;-0.066;2022-09-28T12:31:45;1.88;;;1.30;;
60354;SDS011;46198;51.464;-0.066;2022-09-28T12:34:21;3.42;;;1.98;;
60354;SDS011;46198;51.464;-0.066;2022-09-28T12:36:53;2.45;;;1.20;;
60354;SDS011;46198;51.464;-0.066;2022-09-28T12:39:38;1.90;;;1.17;;
60354;SDS011;46198;51.464;-0.066;2022-09-28T12:42:28;7.25;;;2.63;;
60354;SDS011;46198;51.464;-0.066;2022-09-28T12:45:12;4.95;;;1.42;;
60354;SDS011;46198;51.464;-0.066;2022-09-28T12:50:55;2.53;;;1.50;;
60354;SDS011;46198;51.464;-0.066;2022-09-28T12:56:28;6.35;;;2.33;;
60354;SDS011;46198;51.464;-0.066;2022-09-28T12:59:07;2.47;;;1.48;;
60354;SDS011;46198;51.464;-0.066;2022-09-28T13:05:05;7.07;;;1.80;;
60354;SDS011;46198;51.464;-0.066;2022-09-28T13:07:45;1.45;;;1.33;;
60354;SDS011;46198;51.464;-0.066;2022-09-28T13:10:25;2.22;;;1.40;;
60354;SDS011;46198;51.464;-0.066;2022-09-28T13:13:11;3.38;;;1.67;;
60354;SDS011;46198;51.464;-0.066;2022-09-28T13:15:52;2.63;;;1.40;;
60354;SDS011;46198;51.464;-0.066;2022-09-28T13:18:29;2.13;;;1.20;;
60354;SDS011;46198;51.464;-0.066;2022-09-28T13:21:04;5.18;;;2.00;;
60354;SDS011;46198;51.464;-0.066;2022-09-28T13:23:40;5.20;;;2.50;;
60354;SDS011;46198;51.464;-0.066;2022-09-28T13:26:15;1.85;;;1.08;;
60354;SDS011;46198;51.464;-0.066;2022-09-28T13:28:49;1.70;;;1.40;;
60354;SDS011;46198;51.464;-0.066;2022-09-28T13:31:22;2.58;;;1.38;;
60354;SDS011;46198;51.464;-0.066;2022-09-28T13:33:58;4.05;;;1.38;;
60354;SDS011;46198;51.464;-0.066;2022-09-28T13:36:40;5.50;;;1.33;;
60354;SDS011;46198;51.464;-0.066;2022-09-28T13:42:03;2.85;;;1.40;;
60354;SDS011;46198;51.464;-0.066;2022-09-28T13:44:39;3.80;;;2.13;;
60354;SDS011;46198;51.464;-0.066;2022-09-28T13:47:26;2.17;;;1.48;;
60354;SDS011;46198;51.464;-0.066;2022-09-28T13:50:17;2.88;;;0.98;;
60354;SDS011;46198;51.464;-0.066;2022-09-28T13:52:56;1.83;;;0.95;;
60354;SDS011;46198;51.464;-0.066;2022-09-28T13:55:34;4.40;;;1.45;;
60354;SDS011;46198;51.464;-0.066;2022-09-28T13:58:15;2.13;;;1.30;;
60354;SDS011;46198;51.464;-0.066;2022-09-28T14:00:48;1.30;;;1.00;;
60354;SDS011;46198;51.464;-0.066;2022-09-28T14:03:24;4.28;;;1.08;;
60354;SDS011;46198;51.464;-0.066;2022-09-28T14:09:06;1.92;;;0.93;;
60354;SDS011;46198;51.464;-0.066;2022-09-28T14:11:54;3.47;;;1.27;;
60354;SDS011;46198;51.464;-0.066;2022-09-28T14:14:25;1.17;;;0.90;;
60354;SDS011;46198;51.464;-0.066;2022-09-28T14:20:01;2.97;;;1.20;;
60354;SDS011;46198;51.464;-0.066;2022-09-28T14:22:35;2.08;;;1.42;;
60354;SDS011;46198;51.464;-0.066;2022-09-28T14:25:13;1.77;;;1.20;;
60354;SDS011;46198;51.464;-0.066;2022-09-28T14:28:04;1.95;;;1.10;;
60354;SDS011;46198;51.464;-0.066;2022-09-28T14:30:55;1.42;;;1.23;;
60354;SDS011;46198;51.464;-0.066;2022-09-28T14:33:26;3.80;;;1.20;;
60354;SDS011;46198;51.464;-0.066;2022-09-28T14:35:57;2.97;;;1.13;;
60354;SDS011;46198;51.464;-0.066;2022-09-28T14:41:25;1.95;;;1.40;;
60354;SDS011;46198;51.464;-0.066;2022-09-28T14:44:00;6.28;;;1.52;;
60354;SDS011;46198;51.464;-0.066;2022-09-28T14:46:37;3.17;;;1.40;;
60354;SDS011;46198;51.464;-0.066;2022-09-28T14:52:38;1.00;;;0.88;;
60354;SDS011;46198;51.464;-0.066;2022-09-28T14:55:13;2.42;;;0.90;;
60354;SDS011;46198;51.464;-0.066;2022-09-28T14:57:43;2.08;;;1.10;;
60354;SDS011;46198;51.464;-0.066;2022-09-28T15:00:21;1.65;;;1.20;;
60354;SDS011;46198;51.464;-0.066;2022-09-28T15:02:52;3.22;;;1.10;;
60354;SDS011;46198;51.464;-0.066;2022-09-28T15:05:45;2.38;;;1.35;;
60354;SDS011;46198;51.464;-0.066;2022-09-28T15:08:21;3.38;;;1.20;;
60354;SDS011;46198;51.464;-0.066;2022-09-28T15:11:02;6.45;;;2.22;;
60354;SDS011;46198;51.464;-0.066;2022-09-28T15:13:30;3.53;;;1.38;;
60354;SDS011;46198;51.464;-0.066;2022-09-28T15:16:03;4.07;;;1.42;;
60354;SDS011;46198;51.464;-0.066;2022-09-28T15:18:48;3.08;;;1.50;;
60354;SDS011;46198;51.464;-0.066;2022-09-28T15:21:31;4.72;;;2.60;;
60354;SDS011;46198;51.464;-0.066;2022-09-28T15:24:02;4.35;;;1.52;;
60354;SDS011;46198;51.464;-0.066;2022-09-28T15:26:49;2.22;;;1.20;;
60354;SDS011;46198;51.464;-0.066;2022-09-28T15:29:19;3.35;;;1.35;;
60354;SDS011;46198;51.464;-0.066;2022-09-28T15:31:50;1.83;;;1.15;;
60354;SDS011;46198;51.464;-0.066;2022-09-28T15:34:27;3.55;;;1.38;;
60354;SDS011;46198;51.464;-0.066;2022-09-28T15:37:14;5.95;;;1.75;;
60354;SDS011;46198;51.464;-0.066;2022-09-28T15:39:45;3.17;;;2.13;;
60354;SDS011;46198;51.464;-0.066;2022-09-28T15:42:14;4.75;;;2.08;;
60354;SDS011;46198;51.464;-0.066;2022-09-28T15:47:56;3.13;;;1.15;;
60354;SDS011;46198;51.464;-0.066;2022-09-28T15:50:56;3.42;;;1.38;;
60354;SDS011;46198;51.464;-0.066;2022-09-28T15:53:27;2.90;;;1.33;;
60354;SDS011;46198;51.464;-0.066;2022-09-28T15:56:01;3.92;;;1.60;;
60354;SDS011;46198;51.464;-0.066;2022-09-28T15:58:35;1.98;;;1.27;;
60354;SDS011;46198;51.464;-0.066;2022-09-28T16:09:56;1.77;;;1.10;;